createdAt,value
2018-12-19T07:26:47.103Z,44.27
2018-12-19T07:29:15.343Z,45.95
2018-12-19T07:31:43.559Z,43.42
2018-12-19T07:34:11.807Z,45.05
2018-12-19T07:36:40.253Z,44.35
2018-12-19T07:39:08.492Z,46.50
2018-12-19T07:41:36.706Z,45.52
2018-12-19T07:44:04.943Z,45.88
2018-12-19T07:46:33.979Z,44.42
2018-12-19T07:49:02.215Z,44.40
2018-12-19T07:51:30.430Z,44.38
2018-12-19T07:53:58.663Z,45.30
2018-12-19T07:56:26.955Z,45.92
2018-12-19T07:58:55.185Z,44.90
2018-12-19T08:01:23.403Z,44.23
2018-12-19T08:03:51.643Z,43.90
2018-12-19T08:06:19.943Z,44.15
2018-12-19T08:08:48.190Z,44.40
2018-12-19T08:11:16.423Z,46.65
2018-12-19T08:13:44.654Z,46.45
2018-12-19T08:16:12.884Z,44.58
2018-12-19T08:18:41.130Z,44.63
2018-12-19T08:21:09.358Z,43.95
2018-12-19T08:23:37.616Z,44.70
2018-12-19T08:26:05.914Z,46.13
2018-12-19T08:28:34.158Z,45.08
2018-12-19T08:31:02.373Z,43.33
2018-12-19T08:33:30.610Z,45.08
2018-12-19T08:35:58.818Z,45.70
2018-12-19T08:38:28.522Z,44.80
2018-12-19T08:40:58.891Z,46.25
2018-12-19T08:43:27.159Z,47.17
2018-12-19T08:45:55.760Z,44.18
2018-12-19T08:48:24.075Z,46.87
2018-12-19T08:50:52.291Z,47.97
2018-12-19T08:53:20.531Z,46.33
2018-12-19T08:55:48.767Z,47.77
2018-12-19T08:58:17.065Z,47.93
2018-12-19T09:00:45.382Z,47.80
2018-12-19T09:03:13.594Z,48.00
2018-12-19T09:05:41.833Z,50.07
2018-12-19T09:08:10.083Z,48.40
2018-12-19T09:10:38.328Z,49.60
2018-12-19T09:13:06.551Z,48.90
2018-12-19T09:15:40.243Z,49.23
2018-12-19T09:18:08.466Z,51.20
2018-12-19T09:20:36.714Z,50.38
2018-12-19T09:23:04.948Z,54.23
2018-12-19T09:25:33.187Z,52.63
2018-12-19T09:28:02.443Z,51.27
2018-12-19T09:30:30.683Z,50.83
2018-12-19T09:32:58.911Z,48.13
2018-12-19T09:35:27.163Z,51.20
2018-12-19T09:37:55.380Z,52.80
2018-12-19T09:40:23.620Z,51.13
2018-12-19T09:42:51.855Z,56.57
2018-12-19T09:45:20.107Z,51.70
2018-12-19T09:47:48.313Z,51.60
2018-12-19T09:50:16.653Z,54.30
2018-12-19T09:52:44.865Z,51.83
2018-12-19T09:55:13.116Z,52.20
2018-12-19T09:57:41.525Z,55.83
2018-12-19T10:00:15.318Z,57.20
2018-12-19T10:02:43.562Z,54.93
2018-12-19T10:05:11.797Z,52.10
2018-12-19T10:07:40.107Z,48.80
2018-12-19T10:10:08.341Z,51.53
2018-12-19T10:12:36.555Z,50.20
2018-12-19T10:15:04.960Z,50.97
2018-12-19T10:17:33.267Z,48.73
2018-12-19T10:20:01.495Z,49.57
2018-12-19T10:22:31.638Z,50.93
2018-12-19T10:25:05.849Z,48.77
2018-12-19T10:27:34.407Z,48.73
2018-12-19T10:30:02.850Z,53.07
2018-12-19T10:32:36.408Z,56.97
2018-12-19T10:35:04.819Z,54.60
2018-12-19T10:37:33.054Z,53.13
2018-12-19T10:40:01.352Z,51.53
2018-12-19T10:42:29.587Z,60.30
2018-12-19T10:44:57.803Z,62.03
2018-12-19T10:47:32.378Z,55.83
2018-12-19T10:50:00.590Z,50.00
2018-12-19T10:52:28.819Z,49.97
2018-12-19T10:54:57.030Z,50.27
2018-12-19T10:57:25.259Z,47.40
2018-12-19T10:59:53.479Z,49.10
2018-12-19T11:02:21.790Z,50.70
2018-12-19T11:04:50.003Z,50.00
2018-12-19T11:07:18.263Z,53.03
2018-12-19T11:09:46.495Z,51.30
2018-12-19T11:12:14.736Z,51.67
2018-12-19T11:14:42.947Z,42.53
2018-12-19T11:17:11.460Z,47.63
2018-12-19T11:19:39.679Z,47.53
2018-12-19T11:22:10.763Z,46.60
2018-12-19T11:24:39.438Z,44.23
2018-12-19T11:27:07.690Z,44.77
2018-12-19T11:29:35.902Z,46.97
2018-12-19T11:32:04.134Z,45.30
2018-12-19T11:34:32.432Z,45.23
2018-12-19T11:37:00.679Z,42.90
2018-12-19T11:39:28.904Z,45.03
2018-12-19T11:41:57.139Z,45.23
2018-12-19T11:44:25.354Z,44.50
2018-12-19T11:46:53.582Z,44.40
2018-12-19T11:49:21.791Z,45.93
2018-12-19T11:51:50.018Z,47.43
2018-12-19T11:54:18.319Z,48.10
2018-12-19T11:56:46.551Z,47.13
2018-12-19T11:59:14.850Z,51.23
2018-12-19T12:01:43.187Z,47.13
2018-12-19T12:04:11.399Z,52.20
2018-12-19T12:06:39.771Z,50.60
2018-12-19T12:09:08.062Z,48.83
2018-12-19T12:11:36.286Z,50.87
2018-12-19T12:14:04.607Z,51.53
2018-12-19T12:16:32.836Z,54.07
2018-12-19T12:19:01.067Z,50.63
2018-12-19T12:21:29.292Z,52.63
2018-12-19T12:23:57.542Z,51.33
2018-12-19T12:26:25.754Z,51.00
2018-12-19T12:28:54.170Z,54.70
2018-12-19T12:31:22.379Z,55.87
2018-12-19T12:33:50.838Z,52.57
2018-12-19T12:36:19.430Z,54.63
2018-12-19T12:38:47.743Z,54.07
2018-12-19T12:41:15.953Z,51.57
2018-12-19T12:43:44.187Z,55.17
2018-12-19T12:46:12.402Z,51.17
2018-12-19T12:48:40.637Z,50.87
2018-12-19T12:51:08.852Z,51.90
2018-12-19T12:53:37.098Z,52.83
2018-12-19T12:56:05.410Z,53.43
2018-12-19T12:58:33.642Z,56.13
2018-12-19T13:01:02.007Z,52.13
2018-12-19T13:03:30.376Z,50.50
2018-12-19T13:05:58.591Z,51.93
2018-12-19T13:08:26.846Z,51.87
2018-12-19T13:10:55.046Z,51.77
2018-12-19T13:13:23.298Z,50.33
2018-12-19T13:15:51.524Z,49.80
2018-12-19T13:18:19.779Z,50.63
2018-12-19T13:20:48.108Z,52.37
2018-12-19T13:23:16.348Z,51.30
2018-12-19T13:25:44.556Z,50.97
2018-12-19T13:28:12.901Z,50.00
2018-12-19T13:30:41.111Z,49.07
2018-12-19T13:33:09.322Z,50.20
2018-12-19T13:35:37.559Z,48.50
2018-12-19T13:38:05.843Z,48.10
2018-12-19T13:40:34.150Z,48.50
2018-12-19T13:43:02.363Z,50.23
2018-12-19T13:45:30.583Z,48.70
2018-12-19T13:47:58.791Z,49.20
2018-12-19T13:50:27.107Z,47.87
2018-12-19T13:52:55.316Z,49.27
2018-12-19T13:55:23.551Z,47.70
2018-12-19T13:57:51.844Z,48.77
2018-12-19T14:00:21.895Z,48.87
2018-12-19T14:02:50.195Z,48.70
2018-12-19T14:05:18.426Z,48.67
2018-12-19T14:07:46.730Z,46.83
2018-12-19T14:10:15.058Z,48.73
2018-12-19T14:12:43.360Z,45.53
2018-12-19T14:15:11.678Z,47.40
2018-12-19T14:17:39.979Z,46.20
2018-12-19T14:20:08.651Z,44.27
2018-12-19T14:22:36.940Z,44.30
2018-12-19T14:25:05.499Z,44.13
2018-12-19T14:27:33.727Z,45.20
2018-12-19T14:30:02.159Z,47.00
2018-12-19T14:32:30.377Z,44.77
2018-12-19T14:34:58.683Z,45.47
2018-12-19T14:37:26.903Z,43.80
2018-12-19T14:39:55.224Z,45.70
2018-12-19T14:42:23.436Z,45.80
2018-12-19T14:44:51.671Z,46.87
2018-12-19T14:47:19.883Z,46.20
2018-12-19T14:49:48.122Z,45.83
2018-12-19T14:52:16.338Z,46.97
2018-12-19T14:54:44.567Z,44.80
2018-12-19T14:57:12.780Z,46.23
2018-12-19T14:59:41.242Z,48.37
2018-12-19T15:02:09.464Z,56.07
2018-12-19T15:04:37.683Z,59.50
2018-12-19T15:07:05.995Z,58.03
2018-12-19T15:09:34.227Z,57.33
2018-12-19T15:12:02.456Z,52.17
2018-12-19T15:14:30.664Z,56.63
2018-12-19T15:16:58.979Z,59.50
2018-12-19T15:19:27.212Z,63.77
2018-12-19T15:21:55.527Z,57.97
2018-12-19T15:24:23.742Z,54.93
2018-12-19T15:26:51.983Z,52.50
2018-12-19T15:29:20.204Z,51.67
2018-12-19T15:31:48.443Z,46.97
2018-12-19T15:34:16.655Z,44.13
2018-12-19T15:36:44.886Z,44.77
2018-12-19T15:39:13.179Z,44.97
2018-12-19T15:41:41.406Z,46.63
2018-12-19T15:44:09.695Z,45.67
2018-12-19T15:46:38.011Z,44.97
2018-12-19T15:49:06.298Z,45.40
2018-12-19T15:51:34.527Z,44.50
2018-12-19T15:54:02.746Z,44.23
2018-12-19T15:56:31.151Z,42.73
2018-12-19T15:58:59.375Z,42.30
2018-12-19T16:01:27.611Z,42.23
2018-12-19T16:03:55.832Z,44.63
2018-12-19T16:06:24.066Z,42.63
2018-12-19T16:08:52.302Z,44.17
2018-12-19T16:11:20.543Z,41.70
2018-12-19T16:13:48.839Z,41.87
2018-12-19T16:16:17.148Z,41.17
2018-12-19T16:18:45.370Z,42.07
2018-12-19T16:21:13.618Z,41.23
2018-12-19T16:23:41.842Z,42.53
2018-12-19T16:26:10.152Z,43.83
2018-12-19T16:28:38.390Z,40.13
2018-12-19T16:31:06.693Z,43.03
2018-12-19T16:33:34.918Z,42.07
2018-12-19T16:36:03.214Z,39.67
2018-12-19T16:38:31.450Z,40.70
2018-12-19T16:40:59.788Z,40.97
2018-12-19T16:43:28.087Z,39.53
2018-12-19T16:45:56.307Z,41.03
2018-12-19T16:48:24.542Z,38.37
2018-12-19T16:50:52.756Z,36.73
2018-12-19T16:53:20.995Z,38.60
2018-12-19T16:55:49.207Z,38.33
2018-12-19T16:58:17.477Z,41.10
2018-12-19T17:00:45.766Z,41.57
2018-12-19T17:03:14.089Z,37.43
2018-12-19T17:05:42.317Z,38.20
2018-12-19T17:08:10.586Z,42.37
2018-12-19T17:10:38.806Z,52.13
2018-12-19T17:13:13.606Z,47.03
2018-12-19T17:15:41.816Z,48.23
2018-12-19T17:18:10.135Z,46.17
2018-12-19T17:20:38.358Z,43.20
2018-12-19T17:23:06.592Z,42.97
2018-12-19T17:25:34.831Z,41.13
2018-12-19T17:28:03.227Z,41.67
2018-12-19T17:30:31.456Z,37.07
2018-12-19T17:32:59.692Z,40.87
2018-12-19T17:35:27.915Z,39.70
2018-12-19T17:37:56.276Z,42.77
2018-12-19T17:40:24.485Z,45.97
2018-12-19T17:42:59.215Z,53.93
2018-12-19T17:45:22.989Z,63.87
2018-12-19T17:47:51.332Z,60.10
2018-12-19T17:50:19.633Z,84.43
2018-12-19T17:52:47.859Z,74.97
2018-12-19T17:55:16.182Z,68.17
2018-12-19T17:57:44.390Z,52.43
2018-12-19T18:00:12.826Z,49.43
2018-12-19T18:02:41.047Z,43.67
2018-12-19T18:05:09.367Z,41.80
2018-12-19T18:07:37.594Z,41.40
2018-12-19T18:10:06.074Z,39.97
2018-12-19T18:12:34.283Z,41.90
2018-12-19T18:15:02.594Z,39.70
2018-12-19T18:17:30.802Z,39.70
2018-12-19T18:19:59.047Z,38.87
2018-12-19T18:22:27.275Z,39.17
2018-12-19T18:24:55.502Z,41.83
2018-12-19T18:27:23.803Z,39.93
2018-12-19T18:29:52.031Z,41.00
2018-12-19T18:32:20.259Z,40.40
2018-12-19T18:34:48.496Z,37.20
2018-12-19T18:37:16.703Z,37.33
2018-12-19T18:39:44.931Z,40.10
2018-12-19T18:42:13.219Z,39.13
2018-12-19T18:44:41.542Z,36.70
2018-12-19T18:47:09.834Z,37.57
2018-12-19T18:49:38.147Z,35.67
2018-12-19T18:52:06.358Z,36.70
2018-12-19T18:54:34.587Z,34.20
2018-12-19T18:57:02.896Z,37.20
2018-12-19T18:59:31.122Z,38.10
2018-12-19T19:01:59.379Z,34.83
2018-12-19T19:04:27.585Z,38.30
2018-12-19T19:06:55.945Z,33.80
2018-12-19T19:09:24.255Z,34.00
2018-12-19T19:11:52.567Z,34.10
2018-12-19T19:14:20.934Z,33.03
2018-12-19T19:16:49.167Z,32.93
2018-12-19T19:19:17.468Z,31.13
2018-12-19T19:21:45.700Z,31.93
2018-12-19T19:24:13.916Z,32.57
2018-12-19T19:26:42.148Z,30.33
2018-12-19T19:29:10.375Z,30.50
2018-12-19T19:31:38.623Z,35.90
2018-12-19T19:34:06.832Z,32.20
2018-12-19T19:36:35.135Z,29.90
2018-12-19T19:39:05.347Z,31.77
2018-12-19T19:41:33.579Z,30.80
2018-12-19T19:44:01.798Z,33.30
2018-12-19T19:46:30.048Z,32.30
2018-12-19T19:48:58.275Z,32.63
2018-12-19T19:51:26.502Z,27.90
2018-12-19T19:53:54.719Z,27.70
2018-12-19T19:56:22.959Z,30.00
2018-12-19T19:58:51.179Z,26.63
2018-12-19T20:01:19.408Z,26.77
2018-12-19T20:03:47.639Z,27.97
2018-12-19T20:06:15.870Z,25.40
2018-12-19T20:08:44.102Z,27.00
2018-12-19T20:11:12.323Z,28.10
2018-12-19T20:13:40.651Z,26.63
2018-12-19T20:16:08.863Z,26.93
2018-12-19T20:18:37.099Z,25.17
2018-12-19T20:21:05.316Z,25.77
2018-12-19T20:23:33.551Z,25.50
2018-12-19T20:26:01.783Z,27.30
2018-12-19T20:28:30.010Z,25.70
2018-12-19T20:30:58.232Z,25.23
2018-12-19T20:33:26.482Z,26.93
2018-12-19T20:35:54.774Z,26.27
2018-12-19T20:38:23.007Z,25.77
2018-12-19T20:40:51.227Z,26.50
2018-12-19T20:43:19.458Z,26.80
2018-12-19T20:45:47.828Z,25.00
2018-12-19T20:48:16.059Z,24.93
2018-12-19T20:50:44.287Z,24.63
2018-12-19T20:53:12.525Z,25.50
2018-12-19T20:55:40.734Z,26.67
2018-12-19T20:58:08.983Z,25.03
2018-12-19T21:00:37.306Z,26.57
2018-12-19T21:03:05.546Z,25.57
2018-12-19T21:05:33.768Z,25.27
2018-12-19T21:08:02.115Z,24.20
2018-12-19T21:10:30.348Z,23.53
2018-12-19T21:12:58.582Z,25.67
2018-12-19T21:15:26.799Z,25.87
2018-12-19T21:18:00.609Z,25.50
2018-12-19T21:20:28.906Z,26.47
2018-12-19T21:22:57.139Z,25.80
2018-12-19T21:25:25.352Z,26.10
2018-12-19T21:27:53.591Z,27.37
2018-12-19T21:30:21.803Z,25.90
2018-12-19T21:32:50.132Z,25.03
2018-12-19T21:35:18.353Z,26.07
2018-12-19T21:37:46.589Z,29.47
2018-12-19T21:40:14.890Z,29.47
